Hovedside
METAR-TAF:

METAR-TAF

Lufthavner :

Zagreb lufthavn

Zagreb, Kroatia

breddegrad: 45-44N, lengdegrad: 016-04E, høyde over havet: 106 m

Gjeldene værobservasjon

Denne rapporten ble laget for 7 minutter siden, klokken 15:30 UTC
Vind 5 kt fra Øst-nordøst, skiftende mellom Nord og Øst-sørøst
Temperatur 26°C
Luftfuktighet 48%
Trykk 1018 hPa
Sikt 10 km eller mer
ingen skyer under 1500 m og ingen bygeskyer

METAR: LDZA 201530Z 07005KT 010V110 CAVOK 26/14 Q1018 NOSIG

Tid: 17:37 (15:37 UTC)

Varsel

Denne rapporten ble laget for 4 timer og 12 minutter siden, klokken 11:25 UTC
Varsel gyldig fra 20. klokken 12 UTC til 21. klokken 12 UTC
Vind 5 kt fra Nordøst
Sikt 10 km eller mer
Få skyer i en høyde av 4000 ft
Sannsynlighet 30%
fra 21. klokken 03 UTC til 21. klokken 06 UTC
Sikt: 2000 m
Grunne tåke, dis

TAF: LDZA 201125Z 2012/2112 05005KT 9999 FEW040 TX28/2013Z TN12/2104Z PROB30 2103/2106 2000 MIFG BR

Værobservasjoner og værvarsel for over 4000 flyplasser (METAR- og TAF-rapporter).

Tilgjengelige stasjoner er representert av de røde og gule prikkene på kartet.

Hold musepekeren over prikken for å se navnet på stasjonen.

Klikk så for å se værobservasjoner og -varsler.

For å forandre kartet kan du klikke på den grønne knappen med svart kryss for å zoome inn, på den grønne knappen med strek for å zoome ut, eller på de grønne pilene for å se tilstøtende kart.


METAR-TAF: